createdAt,value
2018-12-26T00:03:37.973Z,1.40
2018-12-26T00:08:13.761Z,2.83
2018-12-26T00:12:49.549Z,3.47
2018-12-26T00:17:25.292Z,1.80
2018-12-26T00:22:01.061Z,1.20
2018-12-26T00:26:36.820Z,1.47
2018-12-26T00:31:12.583Z,1.33
2018-12-26T00:35:48.329Z,2.23
2018-12-26T00:40:24.076Z,1.27
2018-12-26T00:44:59.829Z,1.57
2018-12-26T00:49:35.600Z,2.23
2018-12-26T00:54:11.336Z,1.93
2018-12-26T00:58:47.087Z,1.30
2018-12-26T01:03:22.833Z,1.07
2018-12-26T01:07:58.611Z,0.60
2018-12-26T01:12:34.345Z,1.37
2018-12-26T01:17:10.105Z,1.17
2018-12-26T01:21:45.848Z,1.07
2018-12-26T01:26:21.625Z,1.43
2018-12-26T01:30:57.401Z,0.93
2018-12-26T01:35:33.168Z,1.40
2018-12-26T01:40:08.900Z,2.03
2018-12-26T01:44:44.649Z,0.70
2018-12-26T01:49:20.393Z,2.47
2018-12-26T01:53:56.160Z,2.10
2018-12-26T01:58:31.898Z,1.70
2018-12-26T02:03:07.652Z,1.33
2018-12-26T02:07:43.402Z,2.20
2018-12-26T02:12:19.198Z,1.50
2018-12-26T02:16:54.988Z,1.07
2018-12-26T02:21:30.753Z,1.70
2018-12-26T02:26:06.493Z,1.00
2018-12-26T02:30:42.371Z,1.43
2018-12-26T02:35:18.299Z,1.03
2018-12-26T02:39:54.066Z,3.90
2018-12-26T02:44:29.829Z,1.73
2018-12-26T02:49:05.593Z,1.10
2018-12-26T02:53:41.341Z,1.13
2018-12-26T02:58:17.183Z,1.00
2018-12-26T03:02:53.286Z,1.03
2018-12-26T03:07:29.049Z,1.07
2018-12-26T03:12:04.790Z,0.33
2018-12-26T03:16:40.560Z,1.20
2018-12-26T03:21:16.305Z,0.50
2018-12-26T03:25:52.065Z,1.47
2018-12-26T03:30:27.811Z,0.77
2018-12-26T03:35:03.563Z,1.20
2018-12-26T03:39:39.346Z,0.63
2018-12-26T03:44:15.506Z,0.60
2018-12-26T03:48:51.542Z,0.60
2018-12-26T03:53:27.592Z,1.03
2018-12-26T03:58:03.337Z,0.97
2018-12-26T04:02:39.093Z,0.53
2018-12-26T04:07:14.833Z,2.37
2018-12-26T04:11:50.906Z,1.47
2018-12-26T04:16:26.642Z,0.50
2018-12-26T04:21:02.804Z,1.73
2018-12-26T04:25:38.845Z,1.63
2018-12-26T04:30:14.601Z,2.40
2018-12-26T04:34:50.341Z,2.17
2018-12-26T04:39:26.710Z,0.77
2018-12-26T04:44:02.476Z,2.37
2018-12-26T04:48:38.235Z,1.40
2018-12-26T04:53:13.965Z,1.87
2018-12-26T04:57:49.738Z,2.07
2018-12-26T05:02:25.473Z,1.07
2018-12-26T05:07:01.245Z,0.73
2018-12-26T05:11:36.993Z,0.57
2018-12-26T05:16:12.777Z,0.93
2018-12-26T05:20:48.513Z,0.47
2018-12-26T05:25:24.273Z,0.90
2018-12-26T05:30:00.014Z,0.20
2018-12-26T05:34:35.772Z,1.13
2018-12-26T05:39:11.514Z,0.60
2018-12-26T05:43:47.272Z,0.90
2018-12-26T05:48:23.033Z,0.83
2018-12-26T05:52:58.789Z,1.07
2018-12-26T05:57:42.581Z,0.87
2018-12-26T06:02:11.991Z,0.40
2018-12-26T06:06:47.727Z,0.83
2018-12-26T06:11:23.860Z,1.13
2018-12-26T06:15:59.604Z,0.83
2018-12-26T06:20:37.169Z,1.50
2018-12-26T06:25:13.249Z,1.07
2018-12-26T06:29:49.012Z,2.10
2018-12-26T06:34:24.761Z,1.57
2018-12-26T06:39:00.521Z,0.97
2018-12-26T06:43:36.276Z,1.30
2018-12-26T06:48:12.037Z,1.30
2018-12-26T06:52:47.792Z,2.10
2018-12-26T06:57:23.569Z,0.83
2018-12-26T07:01:59.311Z,0.87
2018-12-26T07:06:35.076Z,3.33
2018-12-26T07:11:10.821Z,8.40
2018-12-26T07:15:48.013Z,20.17
2018-12-26T07:20:23.753Z,11.27
2018-12-26T07:24:59.520Z,6.97
2018-12-26T07:29:35.284Z,3.00
2018-12-26T07:34:11.051Z,2.63
2018-12-26T07:38:46.797Z,1.00
2018-12-26T07:43:22.573Z,2.80
2018-12-26T07:47:58.321Z,6.07
2018-12-26T07:52:34.380Z,3.73
2018-12-26T07:57:10.166Z,1.67
2018-12-26T08:01:45.996Z,1.03
2018-12-26T08:06:21.789Z,2.27
2018-12-26T08:10:57.557Z,3.70
2018-12-26T08:15:33.321Z,4.63
2018-12-26T08:20:09.649Z,2.93
2018-12-26T08:24:45.397Z,1.77
2018-12-26T08:29:21.152Z,2.67
2018-12-26T08:33:56.889Z,3.60
2018-12-26T08:38:32.684Z,5.07
2018-12-26T08:43:08.413Z,4.40
2018-12-26T08:47:44.176Z,3.70
2018-12-26T08:52:19.935Z,12.07
2018-12-26T08:56:55.877Z,8.90
2018-12-26T09:01:31.643Z,4.83
2018-12-26T09:06:07.411Z,5.03
2018-12-26T09:10:43.153Z,6.07
2018-12-26T09:15:18.914Z,6.73
2018-12-26T09:19:54.661Z,16.17
2018-12-26T09:24:30.434Z,4.30
2018-12-26T09:29:06.172Z,4.03
2018-12-26T09:33:41.940Z,1.47
2018-12-26T09:38:17.689Z,2.87
2018-12-26T09:42:53.464Z,1.57
2018-12-26T09:47:29.204Z,6.87
2018-12-26T09:52:04.964Z,9.67
2018-12-26T09:56:40.733Z,7.90
2018-12-26T10:01:16.497Z,5.73
2018-12-26T10:05:52.575Z,3.03
2018-12-26T10:10:28.332Z,5.27
2018-12-26T10:15:04.599Z,4.47
2018-12-26T10:19:40.352Z,6.47
2018-12-26T10:24:16.092Z,2.93
2018-12-26T10:28:51.862Z,1.43
2018-12-26T10:33:28.484Z,1.03
2018-12-26T10:38:04.247Z,1.90
2018-12-26T10:42:39.982Z,3.53
2018-12-26T10:47:15.740Z,1.23
2018-12-26T10:51:51.478Z,4.97
2018-12-26T10:56:27.250Z,1.50
2018-12-26T11:01:03.001Z,4.77
2018-12-26T11:05:38.764Z,1.20
2018-12-26T11:10:14.539Z,1.77
2018-12-26T11:14:50.313Z,4.00
2018-12-26T11:19:26.057Z,1.03
2018-12-26T11:24:01.819Z,1.90
2018-12-26T11:28:37.599Z,3.10
2018-12-26T11:33:14.864Z,2.10
2018-12-26T11:37:50.613Z,1.50
2018-12-26T11:42:26.561Z,2.03
2018-12-26T11:47:02.309Z,1.90
2018-12-26T11:51:38.076Z,3.43
2018-12-26T11:56:13.824Z,2.40
2018-12-26T12:00:49.687Z,1.93
2018-12-26T12:05:25.599Z,5.00
2018-12-26T12:10:01.365Z,1.77
2018-12-26T12:14:38.336Z,1.80
2018-12-26T12:19:14.093Z,4.10
2018-12-26T12:23:49.835Z,5.17
2018-12-26T12:28:25.598Z,3.30
2018-12-26T12:33:01.632Z,3.33
2018-12-26T12:37:37.393Z,2.53
2018-12-26T12:42:13.152Z,2.67
2018-12-26T12:46:48.984Z,1.87
2018-12-26T12:51:24.728Z,3.57
2018-12-26T12:56:00.503Z,3.60
2018-12-26T13:00:36.244Z,1.73
2018-12-26T13:05:12.000Z,2.33
2018-12-26T13:09:47.740Z,2.30
2018-12-26T13:14:24.098Z,2.57
2018-12-26T13:18:59.872Z,3.00
2018-12-26T13:23:35.669Z,4.83
2018-12-26T13:28:11.460Z,7.37
2018-12-26T13:32:47.221Z,4.30
2018-12-26T13:37:22.959Z,3.87
2018-12-26T13:41:58.717Z,4.87
2018-12-26T13:46:34.453Z,5.80
2018-12-26T13:51:10.202Z,5.03
2018-12-26T13:55:45.945Z,5.20
2018-12-26T14:00:21.716Z,5.60
2018-12-26T14:04:57.454Z,5.73
2018-12-26T14:09:33.224Z,5.20
2018-12-26T14:14:08.960Z,5.13
2018-12-26T14:18:44.716Z,5.30
2018-12-26T14:23:20.472Z,7.10
2018-12-26T14:27:56.230Z,7.93
2018-12-26T14:32:31.973Z,6.53
2018-12-26T14:37:07.773Z,8.17
2018-12-26T14:41:43.508Z,4.83
2018-12-26T14:46:19.269Z,16.20
2018-12-26T14:50:55.025Z,11.00
2018-12-26T14:55:30.904Z,12.73
2018-12-26T15:00:07.790Z,9.27
2018-12-26T15:04:43.618Z,15.17
2018-12-26T15:09:19.429Z,14.27
2018-12-26T15:13:55.196Z,13.00
2018-12-26T15:18:30.940Z,13.13
2018-12-26T15:23:06.714Z,13.27
2018-12-26T15:27:42.477Z,20.47
2018-12-26T15:32:18.257Z,21.03
2018-12-26T15:36:54.005Z,17.53
2018-12-26T15:41:29.776Z,19.70
2018-12-26T15:46:05.537Z,24.50
2018-12-26T15:50:41.316Z,15.23
2018-12-26T15:55:17.064Z,17.63
2018-12-26T15:59:52.869Z,15.53
2018-12-26T16:04:28.612Z,15.10
2018-12-26T16:09:06.232Z,20.63
2018-12-26T16:13:41.977Z,20.13
2018-12-26T16:18:17.850Z,20.20
2018-12-26T16:22:54.002Z,18.97
2018-12-26T16:27:29.780Z,23.13
2018-12-26T16:32:05.570Z,28.90
2018-12-26T16:36:41.341Z,20.63
2018-12-26T16:41:17.093Z,23.33
2018-12-26T16:45:52.876Z,18.53
2018-12-26T16:50:28.618Z,20.67
2018-12-26T16:55:04.509Z,25.80
2018-12-26T16:59:40.256Z,24.90
2018-12-26T17:04:16.027Z,22.13
2018-12-26T17:08:51.781Z,26.87
2018-12-26T17:13:27.548Z,20.93
2018-12-26T17:18:03.297Z,24.80
2018-12-26T17:22:39.063Z,24.73
2018-12-26T17:27:14.812Z,29.20
2018-12-26T17:31:50.600Z,26.17
2018-12-26T17:36:26.430Z,28.67
2018-12-26T17:41:02.435Z,23.27
2018-12-26T17:45:38.194Z,23.13
2018-12-26T17:50:56.791Z,22.40
2018-12-26T17:55:59.993Z,24.87
2018-12-26T18:00:47.917Z,23.20
2018-12-26T18:05:23.690Z,23.83
2018-12-26T18:09:59.678Z,18.80
2018-12-26T18:14:35.441Z,31.63
2018-12-26T18:19:11.200Z,24.67
2018-12-26T18:23:46.972Z,16.33
2018-12-26T18:28:22.727Z,23.43
2018-12-26T18:32:58.492Z,21.40
2018-12-26T18:37:34.314Z,20.13
2018-12-26T18:42:10.096Z,26.23
2018-12-26T18:46:45.864Z,24.43
2018-12-26T18:51:21.674Z,33.40
2018-12-26T18:55:57.424Z,44.63
2018-12-26T19:00:33.189Z,42.37
2018-12-26T19:05:10.498Z,45.47
2018-12-26T19:09:47.172Z,51.10
2018-12-26T19:14:22.927Z,38.07
2018-12-26T19:18:58.696Z,35.80
2018-12-26T19:23:34.455Z,30.50
2018-12-26T19:28:10.230Z,29.80
2018-12-26T19:32:45.977Z,30.73
2018-12-26T19:37:21.744Z,30.57
2018-12-26T19:41:57.536Z,25.97
2018-12-26T19:46:33.394Z,30.13
2018-12-26T19:51:09.150Z,31.67
2018-12-26T19:55:45.025Z,35.77
2018-12-26T20:00:21.057Z,32.17
2018-12-26T20:04:56.837Z,29.40
2018-12-26T20:09:32.595Z,31.30
2018-12-26T20:14:08.384Z,31.80
2018-12-26T20:18:44.141Z,30.50
2018-12-26T20:23:19.906Z,34.07
2018-12-26T20:27:55.668Z,40.30
2018-12-26T20:32:31.440Z,32.50
2018-12-26T20:37:07.194Z,34.87
2018-12-26T20:41:42.966Z,40.30
2018-12-26T20:46:18.733Z,40.10
2018-12-26T20:50:54.501Z,32.97
2018-12-26T20:55:30.256Z,30.33
2018-12-26T21:00:08.704Z,35.57
2018-12-26T21:04:45.557Z,40.67
2018-12-26T21:09:21.700Z,34.47
2018-12-26T21:13:57.452Z,39.57
2018-12-26T21:18:33.227Z,27.17
2018-12-26T21:23:09.053Z,33.53
2018-12-26T21:27:44.893Z,31.43
2018-12-26T21:32:21.016Z,29.57
2018-12-26T21:36:56.784Z,40.97
2018-12-26T21:41:32.537Z,36.50
2018-12-26T21:46:08.316Z,38.97
2018-12-26T21:50:44.970Z,47.90
2018-12-26T21:55:20.989Z,61.37
2018-12-26T21:59:56.753Z,58.47
2018-12-26T22:04:32.554Z,69.60
2018-12-26T22:09:08.756Z,78.40
2018-12-26T22:13:44.545Z,91.63
2018-12-26T22:18:20.296Z,87.93
2018-12-26T22:22:56.076Z,71.43
2018-12-26T22:27:31.846Z,76.77
2018-12-26T22:32:07.701Z,87.83
2018-12-26T22:36:43.465Z,71.87
2018-12-26T22:41:19.249Z,70.93
2018-12-26T22:45:55.289Z,68.30
2018-12-26T22:50:31.064Z,64.93
2018-12-26T22:55:06.857Z,58.03
2018-12-26T22:59:42.645Z,48.10
2018-12-26T23:04:18.412Z,65.67
2018-12-26T23:08:54.182Z,55.30
2018-12-26T23:13:29.941Z,58.73
2018-12-26T23:18:05.725Z,47.57
2018-12-26T23:22:41.478Z,49.03
2018-12-26T23:27:17.270Z,85.83
2018-12-26T23:31:54.840Z,51.40
2018-12-26T23:36:30.497Z,38.67
2018-12-26T23:41:06.259Z,42.97
2018-12-26T23:45:42.041Z,41.87
2018-12-26T23:50:17.800Z,38.23
2018-12-26T23:54:53.582Z,47.40
2018-12-26T23:59:29.355Z,37.13
